Time;durP1;ratioP1;P1;durP2;ratioP2;P2;SDS_P1;SDS_P2;PMS_P1;PMS_P2;Temp;Humidity;BMP_temperature;BMP_pressure;BME280_temperature;BME280_humidity;BME280_pressure;Samples;Min_cycle;Max_cycle;Signal;HPM_P1;HPM_P2
2023/04/09 04:01:24;;;;;;;20.38;10.48;;;7.10;99.90;;;;;;5424792;23;20226;-68
2023/04/09 04:03:51;;;;;;;28.95;10.45;;;7.10;99.90;;;;;;4907676;29;20211;-68
2023/04/09 04:06:17;;;;;;;29.10;9.80;;;7.10;99.90;;;;;;4918954;29;20686;-69
2023/04/09 04:08:44;;;;;;;16.10;9.23;;;7.10;99.90;;;;;;4913708;29;20211;-68
2023/04/09 04:11:11;;;;;;;10.85;8.60;;;7.10;99.90;;;;;;4902546;29;20219;-68
2023/04/09 04:13:37;;;;;;;17.92;9.15;;;7.10;99.90;;;;;;4895107;29;20217;-68
2023/04/09 04:16:08;;;;;;;16.08;8.27;;;7.00;99.90;;;;;;4893389;29;20207;-69
2023/04/09 04:18:36;;;;;;;10.05;7.60;;;7.10;99.90;;;;;;4895612;29;20231;-68
2023/04/09 04:21:03;;;;;;;12.85;8.38;;;7.00;99.90;;;;;;4897522;29;20231;-70
2023/04/09 04:23:30;;;;;;;15.30;7.55;;;7.00;99.90;;;;;;4903962;29;20295;-71
2023/04/09 04:25:57;;;;;;;11.82;6.13;;;7.00;99.90;;;;;;4896733;29;20318;-71
2023/04/09 04:28:24;;;;;;;23.85;10.23;;;7.10;99.90;;;;;;4904661;29;20322;-71
2023/04/09 04:30:51;;;;;;;23.13;12.10;;;7.00;99.90;;;;;;4895111;29;20227;-72
2023/04/09 04:33:18;;;;;;;13.50;8.23;;;7.00;99.90;;;;;;4897537;29;20215;-72
2023/04/09 04:35:46;;;;;;;10.05;6.30;;;7.00;99.90;;;;;;4901005;29;20218;-72
2023/04/09 04:38:13;;;;;;;14.48;7.30;;;7.00;99.90;;;;;;4899738;29;20294;-72
2023/04/09 04:40:40;;;;;;;15.98;10.43;;;7.00;99.90;;;;;;4890482;29;20231;-72
2023/04/09 04:43:06;;;;;;;49.08;9.45;;;7.00;99.90;;;;;;4896636;29;20592;-71
2023/04/09 04:45:33;;;;;;;17.90;9.07;;;7.00;99.90;;;;;;4903562;29;20207;-72
2023/04/09 04:48:00;;;;;;;9.40;7.95;;;7.10;99.90;;;;;;4898322;29;20211;-72
2023/04/09 04:50:26;;;;;;;15.73;8.50;;;7.10;99.90;;;;;;4898727;29;20218;-71
2023/04/09 04:52:55;;;;;;;24.33;13.35;;;7.10;99.90;;;;;;4897338;29;20214;-72
2023/04/09 04:55:21;;;;;;;12.55;7.95;;;7.10;99.90;;;;;;4898358;29;20218;-70
2023/04/09 04:57:51;;;;;;;14.48;11.38;;;7.10;99.90;;;;;;4899818;29;20733;-71
2023/04/09 05:00:17;;;;;;;16.08;9.70;;;7.10;99.90;;;;;;4897586;29;20576;-72
2023/04/09 05:02:44;;;;;;;12.02;7.38;;;7.20;99.90;;;;;;4904514;29;20211;-70
2023/04/09 05:05:11;;;;;;;19.15;10.38;;;7.20;99.90;;;;;;4893798;29;20211;-70
2023/04/09 05:07:38;;;;;;;19.30;9.43;;;7.20;99.90;;;;;;4896296;29;20283;-70
2023/04/09 05:10:08;;;;;;;17.50;11.85;;;7.20;99.90;;;;;;4897142;29;20214;-69
2023/04/09 05:12:35;;;;;;;6.57;5.32;;;7.30;99.90;;;;;;4893324;29;20329;-68
2023/04/09 05:15:02;;;;;;;12.02;6.72;;;7.20;99.90;;;;;;4898762;29;20214;-71
2023/04/09 05:17:28;;;;;;;12.48;9.05;;;7.20;99.90;;;;;;4900325;29;20600;-70
2023/04/09 05:19:56;;;;;;;17.67;9.48;;;7.30;99.90;;;;;;4909670;29;20222;-71
2023/04/09 05:22:23;;;;;;;10.85;6.00;;;7.30;99.90;;;;;;4900520;29;20247;-70
2023/04/09 05:24:50;;;;;;;14.35;9.32;;;7.20;99.90;;;;;;4905191;29;20229;-71
2023/04/09 05:27:19;;;;;;;11.82;8.23;;;7.20;99.90;;;;;;4896003;29;20215;-71
2023/04/09 05:29:46;;;;;;;15.27;7.10;;;7.20;99.90;;;;;;4886089;29;20215;-71
2023/04/09 05:32:13;;;;;;;10.73;7.55;;;7.20;99.90;;;;;;4905208;29;20226;-71
2023/04/09 05:34:39;;;;;;;11.70;7.65;;;7.20;99.90;;;;;;4900104;29;20221;-70
2023/04/09 05:37:06;;;;;;;15.98;8.90;;;7.20;99.90;;;;;;4907379;29;20210;-70
2023/04/09 05:39:33;;;;;;;11.32;7.93;;;7.20;99.90;;;;;;4895545;29;20211;-71
2023/04/09 05:42:00;;;;;;;26.85;11.98;;;7.20;99.90;;;;;;4894596;29;20242;-69
2023/04/09 05:44:28;;;;;;;15.90;8.73;;;7.20;99.90;;;;;;4881028;29;20231;-70
2023/04/09 05:46:55;;;;;;;24.27;7.57;;;7.30;99.90;;;;;;4894502;29;20216;-70
2023/04/09 05:49:22;;;;;;;8.07;7.20;;;7.30;99.90;;;;;;4900190;29;20227;-70
2023/04/09 05:51:50;;;;;;;17.45;7.10;;;7.20;99.90;;;;;;4901895;29;20223;-70
2023/04/09 05:54:16;;;;;;;13.45;8.93;;;7.10;99.90;;;;;;4900289;29;20223;-69
2023/04/09 05:56:44;;;;;;;15.20;8.85;;;7.20;99.90;;;;;;4911025;29;20210;-70
2023/04/09 05:59:10;;;;;;;10.93;8.15;;;7.10;99.90;;;;;;4889949;29;20215;-70
2023/04/09 06:01:38;;;;;;;13.25;8.68;;;7.20;99.90;;;;;;4902011;29;20239;-70
2023/04/09 06:04:05;;;;;;;16.27;9.63;;;7.20;99.90;;;;;;4900594;29;20210;-69
2023/04/09 06:06:32;;;;;;;10.55;6.70;;;7.20;99.90;;;;;;4892700;29;20217;-70
2023/04/09 06:08:59;;;;;;;8.57;7.22;;;7.20;99.90;;;;;;4891727;29;20704;-70
2023/04/09 06:11:25;;;;;;;9.75;6.22;;;7.20;99.90;;;;;;4890985;29;20234;-69
2023/04/09 06:13:52;;;;;;;8.00;7.22;;;7.30;99.90;;;;;;4890137;29;20298;-70
2023/04/09 06:16:19;;;;;;;14.27;7.78;;;7.30;99.90;;;;;;4893286;29;20211;-70
2023/04/09 06:18:48;;;;;;;12.15;9.05;;;7.40;99.90;;;;;;4907273;29;20278;-70
2023/04/09 06:21:15;;;;;;;7.90;7.07;;;7.40;99.90;;;;;;4898942;29;20231;-69
2023/04/09 06:23:42;;;;;;;11.52;7.40;;;7.50;99.90;;;;;;4905439;29;20211;-71
2023/04/09 06:26:09;;;;;;;14.02;8.13;;;7.50;99.90;;;;;;4889066;29;20226;-69
2023/04/09 06:28:36;;;;;;;16.73;9.30;;;7.50;99.90;;;;;;4903234;29;20220;-69
2023/04/09 06:31:03;;;;;;;17.67;8.65;;;7.60;99.90;;;;;;4893092;29;20223;-70
2023/04/09 06:33:29;;;;;;;19.17;9.45;;;7.70;99.90;;;;;;4905821;29;20210;-71
2023/04/09 06:35:58;;;;;;;15.88;8.55;;;7.60;99.90;;;;;;4905702;29;20210;-70
2023/04/09 06:38:25;;;;;;;21.90;9.10;;;7.60;99.90;;;;;;4894607;29;20215;-70
2023/04/09 06:40:52;;;;;;;19.27;9.85;;;7.70;99.90;;;;;;4894430;29;20232;-70
2023/04/09 06:43:18;;;;;;;13.18;8.32;;;7.70;99.90;;;;;;4891606;29;20207;-70
2023/04/09 06:45:46;;;;;;;14.10;8.02;;;7.80;99.90;;;;;;4890169;29;20231;-70
2023/04/09 06:48:12;;;;;;;15.57;7.60;;;7.80;99.90;;;;;;4901594;29;20234;-70
2023/04/09 06:50:39;;;;;;;14.55;11.27;;;7.80;99.90;;;;;;4900454;29;20227;-71
2023/04/09 06:53:07;;;;;;;12.43;8.63;;;7.80;99.90;;;;;;4892667;29;20234;-70
2023/04/09 06:55:34;;;;;;;29.15;9.07;;;7.80;99.90;;;;;;4898153;29;20550;-70
2023/04/09 06:58:01;;;;;;;11.75;9.32;;;7.80;99.90;;;;;;4896135;29;20699;-70
2023/04/09 07:00:28;;;;;;;21.05;7.88;;;7.80;99.90;;;;;;4881139;29;20295;-71
2023/04/09 07:02:55;;;;;;;16.73;9.68;;;7.80;99.90;;;;;;4892254;29;20243;-70
2023/04/09 07:05:22;;;;;;;19.17;12.38;;;7.90;99.90;;;;;;4904125;29;20221;-70
2023/04/09 07:07:50;;;;;;;17.63;9.02;;;7.90;99.90;;;;;;4901056;29;20644;-70
2023/04/09 07:10:18;;;;;;;21.80;10.18;;;8.00;99.90;;;;;;4893837;29;20211;-70
2023/04/09 07:12:45;;;;;;;13.43;8.20;;;8.00;99.90;;;;;;4910004;29;20195;-71
2023/04/09 07:15:12;;;;;;;12.13;8.15;;;8.00;99.90;;;;;;4901062;29;20215;-70
2023/04/09 07:17:39;;;;;;;19.67;10.95;;;8.10;99.90;;;;;;4903226;29;20234;-70
2023/04/09 07:20:06;;;;;;;16.20;7.70;;;8.10;99.90;;;;;;4897338;29;20215;-70
2023/04/09 07:22:33;;;;;;;8.48;7.03;;;8.20;99.90;;;;;;4902772;29;20629;-70
2023/04/09 07:25:00;;;;;;;27.48;11.13;;;8.20;99.90;;;;;;4894473;29;20219;-70
2023/04/09 07:27:28;;;;;;;13.30;9.48;;;8.30;99.90;;;;;;4898236;29;20207;-70
2023/04/09 07:29:56;;;;;;;21.13;10.00;;;8.40;99.90;;;;;;4892871;29;20575;-70
2023/04/09 07:32:23;;;;;;;16.85;10.82;;;8.40;99.90;;;;;;4891588;29;20219;-70
2023/04/09 07:34:52;;;;;;;19.58;10.35;;;8.50;99.90;;;;;;4904206;29;20576;-70
2023/04/09 07:37:19;;;;;;;17.13;13.10;;;8.60;99.90;;;;;;4900077;29;20704;-70
2023/04/09 07:39:46;;;;;;;19.00;10.98;;;8.60;99.90;;;;;;4910532;29;20577;-70
2023/04/09 07:42:13;;;;;;;15.30;8.13;;;8.70;99.90;;;;;;4898013;29;20262;-70
2023/04/09 07:44:42;;;;;;;26.50;11.80;;;8.90;99.90;;;;;;4896699;29;20211;-71
2023/04/09 07:47:10;;;;;;;9.98;8.75;;;9.00;99.90;;;;;;4893320;29;20243;-70
2023/04/09 07:49:37;;;;;;;9.60;8.43;;;9.20;99.90;;;;;;4907875;29;20267;-70
2023/04/09 07:52:05;;;;;;;13.50;8.77;;;9.10;99.90;;;;;;4896427;29;20227;-70
2023/04/09 07:54:32;;;;;;;13.75;10.27;;;9.20;99.90;;;;;;4896865;29;20690;-70
2023/04/09 07:57:00;;;;;;;24.52;9.55;;;9.30;99.90;;;;;;4892762;29;20233;-70
2023/04/09 07:59:27;;;;;;;14.40;7.82;;;9.50;99.90;;;;;;4894694;29;20302;-71
2023/04/09 08:01:55;;;;;;;17.27;9.35;;;9.60;99.90;;;;;;4893881;29;20242;-70
2023/04/09 08:04:22;;;;;;;10.60;8.85;;;9.40;99.90;;;;;;4894839;29;20204;-70
2023/04/09 08:06:50;;;;;;;19.03;10.50;;;9.50;99.90;;;;;;4902284;29;20226;-70
2023/04/09 08:09:17;;;;;;;16.37;10.00;;;9.70;99.90;;;;;;4896783;29;20562;-70
2023/04/09 08:11:44;;;;;;;16.00;8.77;;;9.80;99.90;;;;;;4895131;29;20601;-70
2023/04/09 08:14:11;;;;;;;20.30;10.63;;;10.10;99.90;;;;;;4898430;29;20475;-70
2023/04/09 08:16:39;;;;;;;8.67;7.20;;;10.10;99.90;;;;;;4896477;29;20505;-70
2023/04/09 08:19:08;;;;;;;13.63;7.83;;;10.20;99.90;;;;;;4899215;29;20550;-70
2023/04/09 08:21:36;;;;;;;12.47;7.47;;;10.20;99.90;;;;;;4904261;29;20984;-70
2023/04/09 08:24:04;;;;;;;14.53;7.57;;;10.20;99.90;;;;;;4886420;29;20502;-70
2023/04/09 08:26:31;;;;;;;13.17;9.03;;;10.30;99.90;;;;;;4885939;29;20499;-70
2023/04/09 08:28:58;;;;;;;12.40;9.50;;;10.40;99.90;;;;;;4885398;29;20491;-70
2023/04/09 08:31:25;;;;;;;13.80;8.63;;;10.40;99.90;;;;;;4887083;29;20487;-70
2023/04/09 08:33:52;;;;;;;14.10;7.73;;;10.40;99.90;;;;;;4889882;29;20478;-70
2023/04/09 08:36:20;;;;;;;12.20;6.97;;;10.40;99.90;;;;;;4895453;29;20471;-70
2023/04/09 08:38:47;;;;;;;9.27;7.67;;;10.10;99.90;;;;;;4903083;29;20489;-70
2023/04/09 08:41:20;;;;;;;12.97;7.87;;;10.00;99.90;;;;;;4903565;29;20519;-71
2023/04/09 08:43:48;;;;;;;22.50;10.90;;;10.00;99.90;;;;;;4900801;29;20482;-70
2023/04/09 08:46:16;;;;;;;29.35;8.18;;;10.10;99.90;;;;;;4898459;29;20527;-71
2023/04/09 08:48:45;;;;;;;14.70;8.27;;;10.20;99.90;;;;;;4895458;29;20579;-71
2023/04/09 08:51:14;;;;;;;11.37;7.80;;;10.20;99.90;;;;;;4903372;29;20495;-71
2023/04/09 08:53:46;;;;;;;14.10;7.40;;;10.30;99.90;;;;;;4889749;29;20476;-71
2023/04/09 08:56:13;;;;;;;10.87;6.60;;;10.40;99.90;;;;;;4887618;29;20560;-70
2023/04/09 08:58:43;;;;;;;13.97;7.10;;;10.30;99.90;;;;;;4887036;29;21134;-71
2023/04/09 09:01:20;;;;;;;12.87;7.00;;;10.40;99.90;;;;;;4897835;29;20498;-71
2023/04/09 09:03:56;;;;;;;11.90;8.17;;;10.40;99.90;;;;;;4902410;29;20463;-71
2023/04/09 09:06:23;;;;;;;13.77;7.90;;;10.30;99.90;;;;;;4904462;29;20987;-71
2023/04/09 09:09:02;;;;;;;12.50;7.60;;;10.60;99.90;;;;;;4890373;29;20490;-71
2023/04/09 09:11:30;;;;;;;14.53;6.83;;;10.90;99.90;;;;;;4893276;29;20854;-71
2023/04/09 09:14:02;;;;;;;7.67;6.60;;;11.10;99.90;;;;;;4894373;29;21056;-71
2023/04/09 09:16:30;;;;;;;10.33;9.23;;;11.40;99.90;;;;;;4896768;29;20532;-71
2023/04/09 09:18:56;;;;;;;7.40;4.97;;;11.30;99.90;;;;;;4898765;29;20466;-69
2023/04/09 09:21:25;;;;;;;7.70;6.77;;;11.50;99.90;;;;;;4892980;29;21016;-69
2023/04/09 09:23:51;;;;;;;12.60;9.47;;;11.50;99.90;;;;;;4905481;29;20554;-69
2023/04/09 09:26:23;;;;;;;11.80;7.67;;;11.20;99.90;;;;;;4893216;29;20475;-69
2023/04/09 09:28:50;;;;;;;15.20;6.20;;;11.20;99.90;;;;;;4890944;29;20476;-71
2023/04/09 09:31:18;;;;;;;14.43;8.00;;;11.20;99.90;;;;;;4892938;29;20491;-70
2023/04/09 09:33:46;;;;;;;14.83;8.43;;;11.10;99.90;;;;;;4901216;29;20482;-71
2023/04/09 09:36:13;;;;;;;13.77;8.70;;;11.10;99.90;;;;;;4892256;29;20476;-70
2023/04/09 09:38:54;;;;;;;10.40;6.80;;;11.10;99.90;;;;;;4903009;29;20596;-70
2023/04/09 09:41:23;;;;;;;12.70;7.90;;;11.10;99.90;;;;;;4895469;29;20487;-71
2023/04/09 09:43:50;;;;;;;8.63;5.87;;;11.20;99.90;;;;;;4906196;29;20505;-70
2023/04/09 09:46:17;;;;;;;9.73;6.57;;;11.10;99.90;;;;;;4902843;29;20491;-70
2023/04/09 09:48:45;;;;;;;9.67;6.20;;;11.00;99.90;;;;;;4897837;29;20894;-71
2023/04/09 09:51:13;;;;;;;13.77;7.07;;;11.00;99.90;;;;;;4890527;29;20499;-71
2023/04/09 09:53:43;;;;;;;11.93;7.30;;;10.90;99.90;;;;;;4894012;29;20474;-71
2023/04/09 09:56:14;;;;;;;9.23;6.53;;;11.00;99.90;;;;;;4896704;29;20499;-71
2023/04/09 09:58:48;;;;;;;11.50;8.13;;;11.10;99.90;;;;;;4906510;29;20588;-71
2023/04/09 10:01:18;;;;;;;14.70;6.90;;;11.20;99.90;;;;;;4906867;29;20593;-70
2023/04/09 10:03:46;;;;;;;9.93;6.83;;;11.20;99.90;;;;;;4893761;29;21013;-66
2023/04/09 10:06:14;;;;;;;14.33;8.43;;;11.40;99.90;;;;;;4900372;29;20479;-68
2023/04/09 10:08:42;;;;;;;9.20;5.90;;;11.50;99.90;;;;;;4897801;29;20470;-69
2023/04/09 10:11:11;;;;;;;11.50;6.30;;;11.70;99.90;;;;;;4897310;29;20529;-67
2023/04/09 10:13:41;;;;;;;11.40;6.73;;;12.00;99.90;;;;;;4893147;29;20833;-68
2023/04/09 10:16:10;;;;;;;11.67;7.10;;;12.10;99.90;;;;;;4893277;29;20479;-68
2023/04/09 10:18:37;;;;;;;13.30;8.90;;;12.10;99.90;;;;;;4904217;29;20513;-68
2023/04/09 10:21:12;;;;;;;9.33;6.93;;;12.10;99.90;;;;;;4908118;29;20499;-70
2023/04/09 10:23:40;;;;;;;19.57;11.80;;;12.00;99.90;;;;;;4900919;29;20495;-70
2023/04/09 10:26:07;;;;;;;14.17;8.23;;;12.00;99.90;;;;;;4905145;29;20483;-70
2023/04/09 10:28:34;;;;;;;19.17;11.70;;;12.00;99.90;;;;;;4906408;29;20466;-71
2023/04/09 10:31:01;;;;;;;13.53;7.17;;;11.90;99.90;;;;;;4898177;29;20509;-70
2023/04/09 10:33:29;;;;;;;11.87;7.17;;;11.80;99.90;;;;;;4908193;29;20961;-70
2023/04/09 10:36:00;;;;;;;15.43;7.43;;;11.80;99.90;;;;;;4911689;29;20477;-70
2023/04/09 10:38:35;;;;;;;10.73;5.63;;;11.70;99.90;;;;;;4911508;29;20859;-70
2023/04/09 10:41:13;;;;;;;12.97;7.47;;;11.70;99.90;;;;;;4898807;29;20498;-70
2023/04/09 10:43:40;;;;;;;7.23;5.30;;;11.60;99.90;;;;;;4912034;29;20486;-70
2023/04/09 10:46:24;;;;;;;11.93;4.93;;;11.50;99.90;;;;;;4904915;29;20483;-70
2023/04/09 10:49:08;;;;;;;11.63;5.73;;;11.50;99.90;;;;;;4908835;29;20345;-71
2023/04/09 10:51:37;;;;;;;12.73;8.43;;;11.50;99.90;;;;;;4912319;29;20495;-71
2023/04/09 10:54:04;;;;;;;8.60;5.87;;;11.60;99.90;;;;;;4903278;29;20474;-71
2023/04/09 10:56:31;;;;;;;16.33;8.27;;;11.60;99.90;;;;;;4906489;29;20984;-71
2023/04/09 10:58:58;;;;;;;10.43;7.30;;;11.60;99.90;;;;;;4907688;29;20984;-71
2023/04/09 11:01:26;;;;;;;10.57;7.17;;;11.70;99.90;;;;;;4899308;29;20265;-71
2023/04/09 11:04:08;;;;;;;8.47;5.40;;;11.70;99.90;;;;;;4909996;29;20486;-71
2023/04/09 11:06:37;;;;;;;9.97;7.50;;;11.80;99.90;;;;;;4910704;29;20841;-71
2023/04/09 11:09:04;;;;;;;9.27;6.17;;;11.90;99.90;;;;;;4900263;29;20471;-71
2023/04/09 11:11:32;;;;;;;9.90;7.30;;;11.90;99.90;;;;;;4910892;29;20562;-71
2023/04/09 11:14:00;;;;;;;8.77;6.13;;;12.00;99.90;;;;;;4910338;29;20834;-71
2023/04/09 11:16:29;;;;;;;9.23;6.00;;;12.10;99.90;;;;;;4914820;29;20480;-71
2023/04/09 11:18:56;;;;;;;9.10;4.67;;;12.10;99.90;;;;;;4911823;29;20514;-71
2023/04/09 11:21:27;;;;;;;9.37;6.50;;;12.10;99.90;;;;;;4909485;29;20895;-71
2023/04/09 11:23:54;;;;;;;9.57;5.33;;;12.10;99.90;;;;;;4904272;29;20545;-71
2023/04/09 11:26:25;;;;;;;10.00;7.67;;;12.20;99.90;;;;;;4913168;29;20471;-70
2023/04/09 11:28:56;;;;;;;13.97;7.07;;;12.40;99.90;;;;;;4906566;29;20471;-71
2023/04/09 11:31:27;;;;;;;13.53;6.60;;;12.40;99.90;;;;;;4899221;29;20499;-71
2023/04/09 11:33:54;;;;;;;15.33;8.10;;;12.40;99.90;;;;;;4903083;29;20467;-71
2023/04/09 11:36:21;;;;;;;12.50;8.53;;;12.50;99.90;;;;;;4899649;29;20542;-70
2023/04/09 11:38:50;;;;;;;11.43;6.47;;;12.50;99.90;;;;;;4901766;29;20472;-70
2023/04/09 11:41:17;;;;;;;12.13;7.00;;;12.60;99.90;;;;;;4908443;29;20487;-71
2023/04/09 11:43:43;;;;;;;9.53;6.87;;;12.60;99.90;;;;;;4911705;29;20507;-70
2023/04/09 11:46:10;;;;;;;9.33;6.80;;;12.60;99.90;;;;;;4907445;29;20467;-71
2023/04/09 11:48:37;;;;;;;10.83;6.33;;;12.80;99.90;;;;;;4898053;29;20480;-71
2023/04/09 11:51:05;;;;;;;14.83;7.50;;;12.90;99.90;;;;;;4899010;29;20487;-71
2023/04/09 11:53:32;;;;;;;9.50;6.47;;;13.00;99.90;;;;;;4897956;29;20456;-71
2023/04/09 11:56:00;;;;;;;5.60;5.20;;;13.00;99.90;;;;;;4906124;29;20459;-71
2023/04/09 11:58:27;;;;;;;8.20;5.57;;;13.10;99.90;;;;;;4913445;29;20534;-70
2023/04/09 12:00:55;;;;;;;6.30;5.70;;;13.10;99.90;;;;;;4905740;29;20554;-70
2023/04/09 12:03:29;;;;;;;9.63;6.83;;;13.10;99.90;;;;;;4906404;29;20521;-70
2023/04/09 12:05:56;;;;;;;7.50;4.90;;;12.90;99.90;;;;;;4892612;29;20482;-71
2023/04/09 12:08:23;;;;;;;15.33;6.03;;;13.00;99.90;;;;;;4912427;29;20983;-71
2023/04/09 12:10:50;;;;;;;8.07;5.83;;;13.20;99.90;;;;;;4898359;29;20547;-71
2023/04/09 12:13:18;;;;;;;8.93;6.33;;;13.20;99.90;;;;;;4911993;29;20462;-71
2023/04/09 12:15:48;;;;;;;7.97;5.83;;;13.30;99.90;;;;;;4903036;29;20558;-71
2023/04/09 12:18:15;;;;;;;11.77;5.70;;;13.30;99.90;;;;;;4894858;29;20478;-71
2023/04/09 12:20:43;;;;;;;9.90;6.00;;;13.50;99.90;;;;;;4890035;29;20490;-71
2023/04/09 12:23:11;;;;;;;7.40;5.30;;;13.60;99.90;;;;;;4898790;29;20558;-71
2023/04/09 12:25:40;;;;;;;10.50;5.80;;;13.70;99.90;;;;;;4904501;29;20478;-71
2023/04/09 12:28:08;;;;;;;8.67;7.17;;;13.90;99.90;;;;;;4908334;29;20525;-71
2023/04/09 12:30:36;;;;;;;10.50;6.17;;;13.90;99.90;;;;;;4894255;29;20480;-71
2023/04/09 12:33:04;;;;;;;10.50;6.87;;;13.90;99.90;;;;;;4896194;29;20472;-71
2023/04/09 12:35:31;;;;;;;8.17;5.20;;;13.90;99.90;;;;;;4902071;29;20482;-71
2023/04/09 12:37:59;;;;;;;8.00;6.93;;;13.80;99.90;;;;;;4909478;29;20828;-71
2023/04/09 12:40:26;;;;;;;13.53;6.70;;;13.80;99.90;;;;;;4905061;29;20616;-71
2023/04/09 12:42:53;;;;;;;6.73;4.50;;;13.90;99.90;;;;;;4908592;29;20491;-71
2023/04/09 12:45:20;;;;;;;5.30;4.43;;;14.00;99.90;;;;;;4895475;29;20586;-71
2023/04/09 12:47:48;;;;;;;7.30;4.80;;;13.90;99.90;;;;;;4908059;29;20467;-71
2023/04/09 12:50:15;;;;;;;8.33;5.70;;;14.00;99.90;;;;;;4906865;29;20823;-71
2023/04/09 12:52:43;;;;;;;7.90;6.30;;;14.10;99.90;;;;;;4899749;29;20467;-70
2023/04/09 12:55:11;;;;;;;10.30;6.03;;;14.20;99.90;;;;;;4905619;29;20493;-72
2023/04/09 12:57:38;;;;;;;6.70;5.13;;;14.10;99.90;;;;;;4900031;29;20499;-72
2023/04/09 13:00:06;;;;;;;9.23;5.83;;;14.00;99.90;;;;;;4896828;29;21064;-71
2023/04/09 13:02:33;;;;;;;5.47;4.93;;;14.00;99.90;;;;;;4897449;29;20495;-71
2023/04/09 13:05:01;;;;;;;7.70;6.33;;;13.90;99.90;;;;;;4904392;29;20534;-72
2023/04/09 13:07:29;;;;;;;5.53;4.93;;;14.00;99.90;;;;;;4896120;29;20478;-72
2023/04/09 13:09:56;;;;;;;8.50;4.30;;;14.10;99.90;;;;;;4900739;29;20515;-72
2023/04/09 13:12:23;;;;;;;6.20;5.33;;;14.00;99.90;;;;;;4895944;29;20496;-72
2023/04/09 13:14:52;;;;;;;10.60;7.13;;;14.20;99.90;;;;;;4893188;29;20475;-72
2023/04/09 13:17:19;;;;;;;5.30;4.50;;;14.40;99.90;;;;;;4904038;29;20964;-71
2023/04/09 13:19:46;;;;;;;5.60;5.03;;;14.60;99.90;;;;;;4907058;29;20829;-71
2023/04/09 13:22:14;;;;;;;6.70;5.87;;;14.60;99.90;;;;;;4909941;29;20498;-73
2023/04/09 13:24:42;;;;;;;9.17;5.60;;;14.60;99.90;;;;;;4898522;29;20490;-72
2023/04/09 13:27:09;;;;;;;6.87;4.37;;;14.40;99.90;;;;;;4902558;29;20538;-72
2023/04/09 13:29:36;;;;;;;7.10;6.27;;;14.30;99.90;;;;;;4902761;29;20475;-71
2023/04/09 13:32:06;;;;;;;12.60;6.17;;;14.40;99.90;;;;;;4903502;29;20483;-72
2023/04/09 13:34:33;;;;;;;8.40;5.23;;;14.30;99.90;;;;;;4903460;29;20499;-72
2023/04/09 13:37:00;;;;;;;6.80;5.90;;;14.20;99.90;;;;;;4895977;29;20467;-71
2023/04/09 13:39:29;;;;;;;10.30;5.83;;;14.10;99.90;;;;;;4896045;29;20482;-72
2023/04/09 13:41:56;;;;;;;8.63;5.73;;;14.10;99.90;;;;;;4909722;29;20595;-71
2023/04/09 13:44:22;;;;;;;6.20;5.90;;;14.10;99.90;;;;;;4895652;29;20487;-72
2023/04/09 13:46:49;;;;;;;5.90;5.00;;;14.20;99.90;;;;;;4903274;29;20478;-72
2023/04/09 13:49:16;;;;;;;4.00;3.07;;;14.30;99.90;;;;;;4894167;29;20558;-72
2023/04/09 13:51:43;;;;;;;4.90;4.40;;;14.40;99.90;;;;;;4895413;29;20487;-72
2023/04/09 13:54:10;;;;;;;3.70;3.27;;;14.40;99.90;;;;;;4893383;29;20521;-69
2023/04/09 13:56:38;;;;;;;4.20;3.30;;;14.30;99.90;;;;;;4905278;29;20972;-72
2023/04/09 13:59:05;;;;;;;8.20;5.30;;;14.30;99.90;;;;;;4901097;29;20586;-71
2023/04/09 14:01:32;;;;;;;5.27;4.57;;;14.40;99.90;;;;;;4897720;29;20495;-71
2023/04/09 14:03:59;;;;;;;7.73;5.40;;;14.40;99.90;;;;;;4897261;29;20522;-71
2023/04/09 14:06:26;;;;;;;7.67;5.67;;;14.40;99.90;;;;;;4907282;29;20624;-72
2023/04/09 14:08:53;;;;;;;7.07;4.80;;;14.40;99.90;;;;;;4913994;29;20476;-72
2023/04/09 14:11:20;;;;;;;4.00;2.60;;;14.50;99.90;;;;;;4906066;29;21000;-72
2023/04/09 14:13:48;;;;;;;6.90;4.07;;;14.60;99.90;;;;;;4905120;29;20467;-70
2023/04/09 14:16:15;;;;;;;3.67;3.43;;;14.70;99.90;;;;;;4899959;29;20463;-72
2023/04/09 14:18:41;;;;;;;3.87;3.50;;;14.60;99.90;;;;;;4917418;29;20485;-72
2023/04/09 14:21:08;;;;;;;4.90;3.43;;;14.60;99.90;;;;;;4906881;29;20491;-72
2023/04/09 14:23:35;;;;;;;4.83;4.43;;;14.70;99.90;;;;;;4898384;29;20928;-72
2023/04/09 14:26:03;;;;;;;3.90;3.30;;;14.70;99.90;;;;;;4905215;29;20467;-72
2023/04/09 14:28:30;;;;;;;4.83;4.33;;;14.90;99.90;;;;;;4896789;29;20948;-72
2023/04/09 14:30:59;;;;;;;3.83;3.00;;;14.90;99.90;;;;;;4902017;29;20581;-72
2023/04/09 14:33:26;;;;;;;3.60;3.40;;;14.90;99.90;;;;;;4908664;29;20846;-71
2023/04/09 14:35:53;;;;;;;6.53;4.20;;;14.90;99.90;;;;;;4907195;29;20925;-72
2023/04/09 14:38:19;;;;;;;8.67;5.30;;;14.90;99.90;;;;;;4914398;29;20470;-72
2023/04/09 14:40:46;;;;;;;4.73;3.20;;;15.00;99.90;;;;;;4903622;29;20517;-73
2023/04/09 14:43:13;;;;;;;7.87;5.27;;;14.90;99.90;;;;;;4913153;29;20901;-67
2023/04/09 14:45:40;;;;;;;7.47;3.43;;;14.80;99.90;;;;;;4908028;29;20475;-73
2023/04/09 14:48:08;;;;;;;3.87;3.47;;;14.70;99.90;;;;;;4912334;29;20470;-73
2023/04/09 14:50:35;;;;;;;3.57;3.27;;;14.60;99.90;;;;;;4908735;29;20478;-72
2023/04/09 14:53:02;;;;;;;4.20;2.57;;;14.60;99.90;;;;;;4905246;29;20484;-72
2023/04/09 14:55:29;;;;;;;4.00;3.77;;;14.60;99.90;;;;;;4895368;29;20483;-71
2023/04/09 14:57:56;;;;;;;6.33;5.00;;;14.60;99.90;;;;;;4895835;29;20475;-71
2023/04/09 15:00:23;;;;;;;3.87;3.57;;;14.70;99.90;;;;;;4895759;29;20475;-71
2023/04/09 15:02:49;;;;;;;3.67;3.47;;;14.80;99.90;;;;;;4897713;29;20574;-70
2023/04/09 15:05:18;;;;;;;5.20;4.80;;;14.80;99.90;;;;;;4903799;29;20490;-71
2023/04/09 15:07:44;;;;;;;4.67;4.43;;;15.00;99.90;;;;;;4897321;29;20479;-70
2023/04/09 15:10:12;;;;;;;2.07;1.60;;;15.10;99.90;;;;;;4905015;29;20485;-71
2023/04/09 15:12:38;;;;;;;3.97;2.87;;;15.10;99.90;;;;;;4905320;29;20554;-71
2023/04/09 15:15:06;;;;;;;5.37;4.87;;;15.20;99.90;;;;;;4896396;29;20482;-70
2023/04/09 15:17:33;;;;;;;7.17;4.90;;;15.10;99.90;;;;;;4905381;29;20470;-71
2023/04/09 15:20:00;;;;;;;5.90;4.67;;;15.00;99.90;;;;;;4905460;29;20554;-71
2023/04/09 15:22:28;;;;;;;4.40;3.30;;;15.00;99.90;;;;;;4912010;29;20478;-71
2023/04/09 15:24:55;;;;;;;7.30;5.10;;;15.00;99.90;;;;;;4904270;29;20506;-71
2023/04/09 15:27:22;;;;;;;4.27;4.07;;;15.00;99.90;;;;;;4902501;29;20467;-71
2023/04/09 15:29:49;;;;;;;2.80;2.60;;;15.00;99.90;;;;;;4894859;29;21062;-70
2023/04/09 15:32:15;;;;;;;5.60;4.50;;;15.00;99.90;;;;;;4905175;29;20566;-70
2023/04/09 15:34:42;;;;;;;6.70;3.30;;;15.00;99.90;;;;;;4878680;29;20457;-71
2023/04/09 15:37:09;;;;;;;11.80;3.30;;;14.90;99.90;;;;;;4905214;29;20468;-70
2023/04/09 15:39:39;;;;;;;4.17;3.80;;;14.90;99.90;;;;;;4904237;29;20579;-70
2023/04/09 15:42:06;;;;;;;7.37;3.50;;;14.90;99.90;;;;;;4905978;29;20487;-70
2023/04/09 15:44:33;;;;;;;2.60;2.30;;;14.80;99.90;;;;;;4898077;29;20502;-70
2023/04/09 15:47:00;;;;;;;5.27;4.03;;;14.80;99.90;;;;;;4902811;29;20467;-71
2023/04/09 15:49:27;;;;;;;4.27;2.80;;;14.80;99.90;;;;;;4894844;29;20548;-71
2023/04/09 15:51:53;;;;;;;5.10;4.23;;;14.80;99.90;;;;;;4896713;29;20484;-71
2023/04/09 15:54:20;;;;;;;3.80;3.60;;;14.70;99.90;;;;;;4902656;29;20470;-71
2023/04/09 15:56:48;;;;;;;3.60;3.30;;;14.70;99.90;;;;;;4899956;29;20470;-71
2023/04/09 15:59:15;;;;;;;4.43;4.03;;;14.70;99.90;;;;;;4899026;29;20495;-70
2023/04/09 16:01:42;;;;;;;5.23;3.90;;;14.70;99.90;;;;;;4896358;29;21000;-71
2023/04/09 16:04:09;;;;;;;4.53;4.13;;;14.60;99.90;;;;;;4901473;29;20483;-72
2023/04/09 16:06:37;;;;;;;5.03;3.67;;;14.70;99.90;;;;;;4907719;29;20837;-71
2023/04/09 16:09:04;;;;;;;4.17;3.10;;;14.70;99.90;;;;;;4910916;29;20474;-70
2023/04/09 16:11:30;;;;;;;5.50;4.00;;;14.70;99.90;;;;;;4895957;29;20596;-71
2023/04/09 16:13:59;;;;;;;7.27;4.70;;;14.70;99.90;;;;;;4900108;29;20554;-71
2023/04/09 16:16:26;;;;;;;3.87;3.57;;;14.60;99.90;;;;;;4896014;29;20570;-71
2023/04/09 16:18:53;;;;;;;8.47;5.43;;;14.60;99.90;;;;;;4908012;29;20936;-72
2023/04/09 16:21:20;;;;;;;6.63;5.23;;;14.50;99.90;;;;;;4898221;29;20502;-72
2023/04/09 16:23:47;;;;;;;3.90;3.53;;;14.40;99.90;;;;;;4902368;29;20956;-71
2023/04/09 16:26:13;;;;;;;5.97;3.40;;;14.30;99.90;;;;;;4907726;29;21035;-70
2023/04/09 16:28:40;;;;;;;5.23;4.73;;;14.30;99.90;;;;;;4930668;23;20506;-68
2023/04/09 16:31:09;;;;;;;4.53;4.10;;;14.20;99.90;;;;;;4913936;29;20473;-69
2023/04/09 16:33:36;;;;;;;6.17;5.57;;;14.20;99.90;;;;;;4914032;29;20641;-69
2023/04/09 16:36:03;;;;;;;10.03;6.33;;;14.10;99.90;;;;;;4915213;29;20467;-70
2023/04/09 16:38:30;;;;;;;12.17;7.13;;;14.00;99.90;;;;;;4914851;29;20500;-69
2023/04/09 16:40:57;;;;;;;8.90;5.37;;;13.80;99.90;;;;;;4915130;29;20466;-69
2023/04/09 16:43:25;;;;;;;10.57;6.70;;;13.80;99.90;;;;;;4913734;29;20474;-69
2023/04/09 16:45:52;;;;;;;7.70;5.10;;;13.70;99.90;;;;;;4915052;29;20948;-68